Time;durP1;ratioP1;P1;durP2;ratioP2;P2;SDS_P1;SDS_P2;PMS_P1;PMS_P2;Temp;Humidity;BMP_temperature;BMP_pressure;BME280_temperature;BME280_humidity;BME280_pressure;Samples;Min_cycle;Max_cycle;Signal;HPM_P1;HPM_P2
2022/01/21 00:01:48;;;;;;;3.22;0.80;;;;;;;;;;6214019;23;20357;-85
2022/01/21 00:04:14;;;;;;;4.43;1.00;;;;;;;;;;6213245;23;20014;-84
2022/01/21 00:06:45;;;;;;;5.90;0.90;;;;;;;;;;6185904;23;20012;-84
2022/01/21 00:09:11;;;;;;;5.25;1.13;;;;;;;;;;6216270;23;20054;-83
2022/01/21 00:11:41;;;;;;;5.40;1.30;;;;;;;;;;6219836;23;20019;-85
2022/01/21 00:14:11;;;;;;;8.07;1.20;;;;;;;;;;6194598;23;20020;-84
2022/01/21 00:16:39;;;;;;;4.95;0.98;;;;;;;;;;6219155;23;20023;-85
2022/01/21 00:19:10;;;;;;;4.38;1.20;;;;;;;;;;6195021;23;20409;-85
2022/01/21 00:30:16;;;;;;;4.10;0.80;;;;;;;;;;6225378;23;20041;-85
2022/01/21 00:32:46;;;;;;;6.78;1.23;;;;;;;;;;6200596;23;20063;-84
2022/01/21 00:35:13;;;;;;;3.15;0.93;;;;;;;;;;6194582;23;20088;-83
2022/01/21 00:37:39;;;;;;;7.43;0.95;;;;;;;;;;6221107;23;20020;-85
2022/01/21 00:40:07;;;;;;;4.32;1.08;;;;;;;;;;6220352;23;20038;-85
2022/01/21 00:42:49;;;;;;;6.72;1.00;;;;;;;;;;6196264;23;20453;-86
2022/01/21 00:45:17;;;;;;;3.95;0.93;;;;;;;;;;6188671;22;20028;-84
2022/01/21 00:47:44;;;;;;;3.00;1.17;;;;;;;;;;6220736;22;20016;-83
2022/01/21 00:50:10;;;;;;;4.47;0.80;;;;;;;;;;6220173;23;20016;-85
2022/01/21 00:52:36;;;;;;;7.88;1.25;;;;;;;;;;6182984;23;20028;-84
2022/01/21 00:55:03;;;;;;;3.42;0.98;;;;;;;;;;6244962;23;20389;-84
2022/01/21 00:57:28;;;;;;;3.63;0.73;;;;;;;;;;6220293;23;20043;-85
2022/01/21 00:59:54;;;;;;;2.58;0.63;;;;;;;;;;6182325;23;20024;-84
2022/01/21 01:02:20;;;;;;;5.35;1.15;;;;;;;;;;6204082;23;20019;-84
2022/01/21 01:04:45;;;;;;;7.05;0.90;;;;;;;;;;6204798;23;20019;-84
2022/01/21 01:07:14;;;;;;;3.60;0.82;;;;;;;;;;6212392;23;20046;-84
2022/01/21 01:09:42;;;;;;;4.13;0.93;;;;;;;;;;6193761;22;20047;-85
2022/01/21 01:12:36;;;;;;;5.90;0.80;;;;;;;;;;6198537;23;20042;-84
2022/01/21 01:20:36;;;;;;;3.90;0.80;;;;;;;;;;6221104;23;20015;-84
2022/01/21 01:23:09;;;;;;;2.35;0.70;;;;;;;;;;6217577;23;20021;-84
2022/01/21 01:28:19;;;;;;;3.63;0.73;;;;;;;;;;6222470;23;20035;-84
2022/01/21 01:30:45;;;;;;;8.07;0.88;;;;;;;;;;6193472;23;20015;-84
2022/01/21 01:33:15;;;;;;;3.38;0.80;;;;;;;;;;6192738;23;20024;-83
2022/01/21 01:35:41;;;;;;;7.13;1.10;;;;;;;;;;6189695;23;20442;-84
2022/01/21 01:38:31;;;;;;;2.95;0.63;;;;;;;;;;6216342;23;20051;-84
2022/01/21 01:41:03;;;;;;;1.95;0.40;;;;;;;;;;6197849;23;20377;-84
2022/01/21 01:51:30;;;;;;;6.15;0.70;;;;;;;;;;6220443;23;20095;-84
2022/01/21 01:54:05;;;;;;;6.13;0.75;;;;;;;;;;6169774;23;20390;-85
2022/01/21 01:56:37;;;;;;;3.67;0.82;;;;;;;;;;6172248;23;20034;-85
2022/01/21 01:59:05;;;;;;;1.77;0.75;;;;;;;;;;6215928;23;20078;-84
2022/01/21 02:01:33;;;;;;;1.83;0.70;;;;;;;;;;6215612;23;21961;-84
2022/01/21 02:03:59;;;;;;;4.20;1.00;;;;;;;;;;6217536;23;20039;-84
2022/01/21 02:06:25;;;;;;;4.93;0.73;;;;;;;;;;6208100;23;20342;-84
2022/01/21 02:08:50;;;;;;;5.22;0.98;;;;;;;;;;6215217;23;20012;-84
2022/01/21 02:11:16;;;;;;;2.67;0.90;;;;;;;;;;6191481;23;20069;-84
2022/01/21 02:13:51;;;;;;;4.30;0.93;;;;;;;;;;6216088;23;20345;-83
2022/01/21 02:21:36;;;;;;;2.40;0.50;;;;;;;;;;6220227;23;20089;-85
2022/01/21 02:24:30;;;;;;;2.42;0.95;;;;;;;;;;6216501;23;20460;-84
2022/01/21 02:27:00;;;;;;;4.97;1.30;;;;;;;;;;6244286;23;20008;-84
2022/01/21 02:29:28;;;;;;;6.43;1.80;;;;;;;;;;6149221;23;20030;-84
2022/01/21 02:31:55;;;;;;;3.13;0.70;;;;;;;;;;6193761;23;20217;-84
2022/01/21 02:34:21;;;;;;;1.67;0.70;;;;;;;;;;6214809;23;20020;-84
2022/01/21 02:36:47;;;;;;;2.40;1.00;;;;;;;;;;6210212;23;20008;-84
2022/01/21 02:39:13;;;;;;;2.75;0.57;;;;;;;;;;6202132;23;20020;-84
2022/01/21 02:41:39;;;;;;;3.60;1.15;;;;;;;;;;6192821;23;20016;-84
2022/01/21 02:44:13;;;;;;;3.85;1.00;;;;;;;;;;6178948;23;20411;-85
2022/01/21 02:46:41;;;;;;;6.07;0.82;;;;;;;;;;6193239;22;20075;-85
2022/01/21 02:49:07;;;;;;;2.33;0.60;;;;;;;;;;6247192;22;20015;-84
2022/01/21 02:51:33;;;;;;;1.92;0.60;;;;;;;;;;6212077;22;20063;-85
2022/01/21 02:54:04;;;;;;;6.70;1.17;;;;;;;;;;6245054;22;20015;-84
2022/01/21 02:56:32;;;;;;;3.28;0.95;;;;;;;;;;6239545;22;20015;-85
2022/01/21 02:58:58;;;;;;;5.50;1.00;;;;;;;;;;6221558;22;20070;-84
2022/01/21 03:01:24;;;;;;;3.35;0.80;;;;;;;;;;6246384;22;20024;-84
2022/01/21 03:03:51;;;;;;;4.90;0.75;;;;;;;;;;6249872;22;20091;-84
2022/01/21 03:06:18;;;;;;;3.53;1.00;;;;;;;;;;6246117;22;20019;-84
2022/01/21 03:08:46;;;;;;;3.92;0.85;;;;;;;;;;6220341;22;20506;-84
2022/01/21 03:11:12;;;;;;;4.53;0.93;;;;;;;;;;6249854;22;20012;-84
2022/01/21 03:13:39;;;;;;;3.03;0.60;;;;;;;;;;6247364;22;20437;-85
2022/01/21 03:16:05;;;;;;;3.63;0.75;;;;;;;;;;6221979;22;20020;-85
2022/01/21 03:18:32;;;;;;;7.53;1.48;;;;;;;;;;6248211;22;20067;-84
2022/01/21 03:20:58;;;;;;;5.75;0.80;;;;;;;;;;6245885;22;20016;-84
2022/01/21 03:23:26;;;;;;;2.60;0.60;;;;;;;;;;6205696;22;20518;-85
2022/01/21 03:25:53;;;;;;;3.67;0.65;;;;;;;;;;6246865;22;20485;-84
2022/01/21 03:28:20;;;;;;;2.53;0.80;;;;;;;;;;6221815;22;20020;-84
2022/01/21 03:30:50;;;;;;;3.10;1.25;;;;;;;;;;6248621;22;20031;-84
2022/01/21 03:33:16;;;;;;;4.20;0.70;;;;;;;;;;6209929;22;20020;-85
2022/01/21 03:35:42;;;;;;;2.15;0.73;;;;;;;;;;6222083;22;20095;-84
2022/01/21 03:38:08;;;;;;;3.60;0.88;;;;;;;;;;6248063;22;20576;-84
2022/01/21 03:40:34;;;;;;;4.97;0.80;;;;;;;;;;6234320;22;20043;-84
2022/01/21 03:43:00;;;;;;;6.70;0.80;;;;;;;;;;6220159;22;20098;-83
2022/01/21 03:45:26;;;;;;;4.80;1.00;;;;;;;;;;6229488;22;20145;-83
2022/01/21 03:47:52;;;;;;;9.18;1.30;;;;;;;;;;6198006;22;20079;-83
2022/01/21 03:50:37;;;;;;;3.38;0.82;;;;;;;;;;6218313;22;20536;-83
2022/01/21 03:53:04;;;;;;;3.63;0.75;;;;;;;;;;6251943;22;20015;-85
2022/01/21 03:55:30;;;;;;;6.80;0.90;;;;;;;;;;6212536;22;20457;-85
2022/01/21 03:57:59;;;;;;;3.22;0.77;;;;;;;;;;6198271;23;20034;-85
2022/01/21 04:00:32;;;;;;;2.08;0.70;;;;;;;;;;6217949;22;20085;-85
2022/01/21 04:02:58;;;;;;;5.25;1.00;;;;;;;;;;6221695;22;20087;-85
2022/01/21 04:05:28;;;;;;;4.07;1.15;;;;;;;;;;6235156;22;20023;-85
2022/01/21 04:07:56;;;;;;;1.48;0.40;;;;;;;;;;6215134;22;20019;-85
2022/01/21 04:10:23;;;;;;;5.55;1.02;;;;;;;;;;6245804;22;20016;-85
2022/01/21 04:12:50;;;;;;;5.38;1.33;;;;;;;;;;6238804;22;20099;-85
2022/01/21 04:15:15;;;;;;;2.00;0.60;;;;;;;;;;6247037;22;20039;-85
2022/01/21 04:17:41;;;;;;;7.30;0.88;;;;;;;;;;6248091;22;20019;-85
2022/01/21 04:20:09;;;;;;;5.65;0.93;;;;;;;;;;6247415;22;20086;-85
2022/01/21 04:22:35;;;;;;;5.47;1.25;;;;;;;;;;6206962;22;20091;-85
2022/01/21 04:25:05;;;;;;;3.55;0.65;;;;;;;;;;6233645;22;20381;-85
2022/01/21 04:27:31;;;;;;;4.68;0.90;;;;;;;;;;6233632;22;20019;-85
2022/01/21 04:29:56;;;;;;;6.65;1.30;;;;;;;;;;6192071;22;20034;-85
2022/01/21 04:32:22;;;;;;;4.18;0.93;;;;;;;;;;6234621;22;20024;-85
2022/01/21 04:34:48;;;;;;;3.08;1.02;;;;;;;;;;6201149;22;20012;-85
2022/01/21 04:37:15;;;;;;;2.10;0.68;;;;;;;;;;6212730;22;20073;-85
2022/01/21 04:39:44;;;;;;;2.58;1.00;;;;;;;;;;6246559;22;20015;-85
2022/01/21 04:47:32;;;;;;;5.07;1.50;;;;;;;;;;6248131;22;20065;-85
2022/01/21 04:49:58;;;;;;;5.15;1.10;;;;;;;;;;6245540;22;20016;-86
2022/01/21 04:52:24;;;;;;;2.80;0.80;;;;;;;;;;6228896;22;20030;-85
2022/01/21 04:54:51;;;;;;;4.22;0.82;;;;;;;;;;6219521;22;20042;-86
2022/01/21 04:57:20;;;;;;;5.57;0.93;;;;;;;;;;6248704;22;20038;-86
2022/01/21 04:59:46;;;;;;;4.38;1.00;;;;;;;;;;6223674;22;20329;-85
2022/01/21 05:02:12;;;;;;;5.38;1.00;;;;;;;;;;6240470;22;20046;-85
2022/01/21 05:04:38;;;;;;;4.60;1.00;;;;;;;;;;6222968;22;20593;-85
2022/01/21 05:07:07;;;;;;;4.22;0.85;;;;;;;;;;6247373;22;20015;-85
2022/01/21 05:09:35;;;;;;;3.35;0.80;;;;;;;;;;6229822;22;20087;-86
2022/01/21 05:12:12;;;;;;;4.78;0.90;;;;;;;;;;6227974;22;20337;-85
2022/01/21 05:17:48;;;;;;;9.05;1.00;;;;;;;;;;6219982;22;20313;-86
2022/01/21 05:20:14;;;;;;;4.32;0.98;;;;;;;;;;6233118;22;20026;-84
2022/01/21 05:22:40;;;;;;;6.57;0.70;;;;;;;;;;6252865;22;20063;-85
2022/01/21 05:25:06;;;;;;;4.03;1.02;;;;;;;;;;6250402;22;20070;-85
2022/01/21 05:27:32;;;;;;;4.85;1.27;;;;;;;;;;6247564;22;20019;-85
2022/01/21 05:29:58;;;;;;;3.13;1.10;;;;;;;;;;6228790;22;20019;-85
2022/01/21 05:32:26;;;;;;;4.43;0.95;;;;;;;;;;6223741;22;20461;-86
2022/01/21 05:34:53;;;;;;;5.45;1.08;;;;;;;;;;6225824;22;20036;-85
2022/01/21 05:37:18;;;;;;;4.70;1.15;;;;;;;;;;6224925;22;20042;-85
2022/01/21 05:39:45;;;;;;;4.90;1.52;;;;;;;;;;6222360;22;20023;-84
2022/01/21 05:42:11;;;;;;;28.95;11.05;;;;;;;;;;6249079;22;20030;-85
2022/01/21 05:47:09;;;;;;;5.80;1.27;;;;;;;;;;6205691;23;20023;-85
2022/01/21 05:49:37;;;;;;;7.35;1.58;;;;;;;;;;6207346;22;20031;-85
2022/01/21 05:52:19;;;;;;;4.85;0.93;;;;;;;;;;6173762;22;20565;-85
2022/01/21 05:54:46;;;;;;;2.75;0.90;;;;;;;;;;6176940;22;20023;-85
2022/01/21 05:57:14;;;;;;;3.25;0.73;;;;;;;;;;6177042;23;20663;-86
2022/01/21 05:59:40;;;;;;;3.60;1.08;;;;;;;;;;6199365;23;20016;-85
2022/01/21 06:02:12;;;;;;;4.93;1.20;;;;;;;;;;6193774;22;20099;-85
2022/01/21 06:04:39;;;;;;;3.38;1.10;;;;;;;;;;6217637;23;20043;-85
2022/01/21 06:07:05;;;;;;;4.93;1.10;;;;;;;;;;6218482;22;20015;-85
2022/01/21 06:09:31;;;;;;;6.05;1.00;;;;;;;;;;6204025;22;20030;-85
2022/01/21 06:11:57;;;;;;;3.58;1.15;;;;;;;;;;6216755;22;20353;-86
2022/01/21 06:14:25;;;;;;;5.97;1.05;;;;;;;;;;6216111;22;20046;-85
2022/01/21 06:16:51;;;;;;;5.63;1.00;;;;;;;;;;6205016;23;20018;-86
2022/01/21 06:19:17;;;;;;;3.33;0.98;;;;;;;;;;6220868;22;20020;-85
2022/01/21 06:21:43;;;;;;;7.72;1.15;;;;;;;;;;6219114;23;20031;-86
2022/01/21 06:24:09;;;;;;;9.43;2.60;;;;;;;;;;6172466;23;20024;-85
2022/01/21 06:26:36;;;;;;;5.03;1.52;;;;;;;;;;6207768;22;20119;-86
2022/01/21 06:29:04;;;;;;;4.10;1.08;;;;;;;;;;6210074;22;20029;-86
2022/01/21 06:31:30;;;;;;;2.70;0.90;;;;;;;;;;6182389;22;20079;-85
2022/01/21 06:33:57;;;;;;;4.75;0.98;;;;;;;;;;6205397;22;20102;-85
2022/01/21 06:36:23;;;;;;;3.03;1.00;;;;;;;;;;6215013;22;20020;-85
2022/01/21 06:38:49;;;;;;;6.60;1.23;;;;;;;;;;6218705;22;20043;-86
2022/01/21 06:41:15;;;;;;;5.75;1.27;;;;;;;;;;6216392;22;20016;-86
2022/01/21 06:43:40;;;;;;;5.60;1.60;;;;;;;;;;6192026;23;20083;-86
2022/01/21 06:46:09;;;;;;;7.05;1.63;;;;;;;;;;6219510;22;20016;-86
2022/01/21 06:48:35;;;;;;;6.18;1.35;;;;;;;;;;6232888;22;20476;-86
2022/01/21 06:51:04;;;;;;;4.75;1.70;;;;;;;;;;6250066;22;20064;-86
2022/01/21 06:53:30;;;;;;;6.38;1.92;;;;;;;;;;6222726;22;20103;-85
2022/01/21 06:55:56;;;;;;;7.65;1.30;;;;;;;;;;6211949;22;20011;-86
2022/01/21 06:58:21;;;;;;;5.93;1.77;;;;;;;;;;6249813;22;20018;-86
2022/01/21 07:00:47;;;;;;;6.95;1.73;;;;;;;;;;6221465;22;20073;-86
2022/01/21 07:03:13;;;;;;;6.05;1.40;;;;;;;;;;6244994;22;20012;-86
2022/01/21 07:05:40;;;;;;;12.35;1.73;;;;;;;;;;6249540;22;20016;-85
2022/01/21 07:08:06;;;;;;;5.95;1.25;;;;;;;;;;6249253;22;20024;-86
2022/01/21 07:10:32;;;;;;;10.00;1.98;;;;;;;;;;6215637;22;20069;-86
2022/01/21 07:12:59;;;;;;;8.55;1.38;;;;;;;;;;6247172;22;20042;-86
2022/01/21 07:15:26;;;;;;;6.00;1.63;;;;;;;;;;6239858;22;20416;-86
2022/01/21 07:17:53;;;;;;;7.30;1.33;;;;;;;;;;6218142;22;20015;-86
2022/01/21 07:20:20;;;;;;;5.85;1.10;;;;;;;;;;6217623;22;20036;-85
2022/01/21 07:22:46;;;;;;;6.80;1.60;;;;;;;;;;6217067;22;20008;-85
2022/01/21 07:25:13;;;;;;;9.23;1.90;;;;;;;;;;6241644;22;20038;-86
2022/01/21 07:27:39;;;;;;;5.78;1.33;;;;;;;;;;6250745;22;20040;-86
2022/01/21 07:30:07;;;;;;;8.73;1.25;;;;;;;;;;6233983;22;20104;-86
2022/01/21 07:32:32;;;;;;;5.50;1.73;;;;;;;;;;6243960;22;20026;-83
2022/01/21 07:34:58;;;;;;;9.25;3.53;;;;;;;;;;6246022;22;20072;-84
2022/01/21 07:37:24;;;;;;;8.07;3.03;;;;;;;;;;6233872;22;20026;-83
2022/01/21 07:39:51;;;;;;;5.93;1.70;;;;;;;;;;6263634;22;20710;-84
2022/01/21 07:42:19;;;;;;;5.80;1.55;;;;;;;;;;6245764;22;20019;-83
2022/01/21 07:44:45;;;;;;;6.03;1.90;;;;;;;;;;6243043;22;20488;-83
2022/01/21 07:47:10;;;;;;;6.30;1.70;;;;;;;;;;6236486;22;20082;-84
2022/01/21 07:49:38;;;;;;;9.65;2.20;;;;;;;;;;6205528;22;20018;-84
2022/01/21 07:52:04;;;;;;;8.20;1.75;;;;;;;;;;6229500;22;20455;-84
2022/01/21 07:54:30;;;;;;;5.93;1.75;;;;;;;;;;6241306;22;20015;-83
2022/01/21 07:56:57;;;;;;;8.65;2.40;;;;;;;;;;6242745;22;20026;-84
2022/01/21 07:59:24;;;;;;;9.68;1.98;;;;;;;;;;6231040;22;20042;-84
2022/01/21 08:01:50;;;;;;;9.38;1.70;;;;;;;;;;6256121;22;20082;-83
2022/01/21 08:04:15;;;;;;;5.88;1.52;;;;;;;;;;6269165;22;20590;-84
2022/01/21 08:06:41;;;;;;;8.88;1.73;;;;;;;;;;6238787;22;20020;-84
2022/01/21 08:09:07;;;;;;;4.70;1.40;;;;;;;;;;6205417;22;20031;-84
2022/01/21 08:11:36;;;;;;;14.23;2.05;;;;;;;;;;6234492;22;20019;-84
2022/01/21 08:14:02;;;;;;;6.68;1.40;;;;;;;;;;6206176;22;20087;-84
2022/01/21 08:16:29;;;;;;;6.07;1.67;;;;;;;;;;6238415;22;20011;-84
2022/01/21 08:18:56;;;;;;;10.00;2.15;;;;;;;;;;6208507;22;20068;-83
2022/01/21 08:21:22;;;;;;;9.00;2.05;;;;;;;;;;6210335;22;20016;-84
2022/01/21 08:23:50;;;;;;;6.72;1.83;;;;;;;;;;6267755;22;20030;-84
2022/01/21 08:26:21;;;;;;;8.13;2.10;;;;;;;;;;6232302;22;20037;-84
2022/01/21 08:28:47;;;;;;;7.13;2.05;;;;;;;;;;6208417;22;20068;-84
2022/01/21 08:31:15;;;;;;;9.30;2.60;;;;;;;;;;6240043;22;20482;-84
2022/01/21 08:33:42;;;;;;;6.85;1.75;;;;;;;;;;6210869;22;20031;-84
2022/01/21 08:36:08;;;;;;;9.70;2.25;;;;;;;;;;6246289;22;20098;-83
2022/01/21 08:38:35;;;;;;;10.05;3.72;;;;;;;;;;6221917;22;20070;-84
2022/01/21 08:41:01;;;;;;;18.20;5.28;;;;;;;;;;6243558;22;20043;-84
2022/01/21 08:43:27;;;;;;;5.00;1.50;;;;;;;;;;6244550;22;20099;-84
2022/01/21 08:45:53;;;;;;;12.13;2.80;;;;;;;;;;6236449;22;20399;-84
2022/01/21 08:48:19;;;;;;;9.60;3.55;;;;;;;;;;6213243;22;20026;-84
2022/01/21 08:50:46;;;;;;;10.13;2.45;;;;;;;;;;6246459;22;20020;-84
2022/01/21 08:55:59;;;;;;;6.40;1.95;;;;;;;;;;6250047;22;20014;-84
2022/01/21 08:58:26;;;;;;;8.73;2.10;;;;;;;;;;6244086;22;20395;-84
2022/01/21 09:00:52;;;;;;;7.18;2.22;;;;;;;;;;6235324;22;20452;-84
2022/01/21 09:03:18;;;;;;;9.82;3.15;;;;;;;;;;6227176;22;20091;-84
2022/01/21 09:05:48;;;;;;;10.27;2.85;;;;;;;;;;6194186;22;20019;-84
2022/01/21 09:08:22;;;;;;;8.38;1.80;;;;;;;;;;6219792;22;20529;-84
2022/01/21 09:10:50;;;;;;;6.45;1.90;;;;;;;;;;6243809;22;20016;-84
2022/01/21 09:13:16;;;;;;;7.53;1.83;;;;;;;;;;6243320;22;20019;-83
2022/01/21 09:15:42;;;;;;;5.88;1.63;;;;;;;;;;6240624;22;20030;-84
2022/01/21 09:18:09;;;;;;;7.32;1.40;;;;;;;;;;6232478;22;20083;-83
2022/01/21 09:20:36;;;;;;;8.50;1.98;;;;;;;;;;6243650;22;20031;-84
2022/01/21 09:23:03;;;;;;;7.38;1.67;;;;;;;;;;6239742;22;20094;-84
2022/01/21 09:25:29;;;;;;;10.15;2.58;;;;;;;;;;6228414;22;20027;-84
2022/01/21 09:27:58;;;;;;;15.80;2.47;;;;;;;;;;6243111;22;20020;-84
2022/01/21 09:30:24;;;;;;;8.88;2.03;;;;;;;;;;6268847;22;20555;-84
2022/01/21 09:32:51;;;;;;;6.15;1.80;;;;;;;;;;6266073;22;20028;-84
2022/01/21 09:35:17;;;;;;;7.47;1.73;;;;;;;;;;6228538;22;20022;-82
2022/01/21 09:37:43;;;;;;;9.25;1.70;;;;;;;;;;6217705;22;20012;-83
2022/01/21 09:40:09;;;;;;;11.80;1.73;;;;;;;;;;6228221;22;20020;-83
2022/01/21 09:42:36;;;;;;;9.05;2.20;;;;;;;;;;6188462;22;20040;-83
2022/01/21 09:45:09;;;;;;;8.95;1.95;;;;;;;;;;6221646;22;20086;-83
2022/01/21 09:47:48;;;;;;;7.68;2.00;;;;;;;;;;6218662;22;20415;-83
2022/01/21 09:50:16;;;;;;;12.93;1.92;;;;;;;;;;6218016;22;20496;-83
2022/01/21 09:52:46;;;;;;;6.95;1.92;;;;;;;;;;6241673;22;20436;-83
2022/01/21 09:55:12;;;;;;;9.60;1.58;;;;;;;;;;6241438;22;20022;-83
2022/01/21 09:57:41;;;;;;;11.18;2.58;;;;;;;;;;6242593;22;20533;-83
2022/01/21 10:00:10;;;;;;;6.38;1.70;;;;;;;;;;6243336;22;20069;-83
2022/01/21 10:02:39;;;;;;;10.02;1.60;;;;;;;;;;6217191;22;20018;-83
2022/01/21 10:05:05;;;;;;;13.38;2.10;;;;;;;;;;6244184;22;20067;-83
2022/01/21 10:07:31;;;;;;;7.53;1.77;;;;;;;;;;6268761;22;20024;-83
2022/01/21 10:09:59;;;;;;;10.57;2.50;;;;;;;;;;6216637;22;20015;-83
2022/01/21 10:12:25;;;;;;;8.05;1.73;;;;;;;;;;6243411;22;20028;-83
2022/01/21 10:14:51;;;;;;;12.40;1.90;;;;;;;;;;6242976;22;20074;-84
2022/01/21 10:17:17;;;;;;;10.30;1.98;;;;;;;;;;6216834;22;20024;-84
2022/01/21 10:19:48;;;;;;;13.43;2.20;;;;;;;;;;6237271;22;20532;-85
2022/01/21 10:22:19;;;;;;;7.53;1.65;;;;;;;;;;6245248;22;20476;-87
2022/01/21 10:24:57;;;;;;;7.97;2.08;;;;;;;;;;6218844;22;20020;-84
2022/01/21 10:27:29;;;;;;;11.43;1.88;;;;;;;;;;6209342;22;20043;-83
2022/01/21 10:29:55;;;;;;;7.63;1.95;;;;;;;;;;6242224;22;20069;-82
2022/01/21 10:32:42;;;;;;;8.05;3.05;;;;;;;;;;6233493;22;20012;-83
2022/01/21 10:35:35;;;;;;;11.35;2.40;;;;;;;;;;6267192;22;20012;-82
2022/01/21 10:38:23;;;;;;;9.68;2.05;;;;;;;;;;6233576;22;20020;-82
2022/01/21 10:40:51;;;;;;;7.38;2.00;;;;;;;;;;6241960;22;20015;-83
2022/01/21 10:43:19;;;;;;;10.02;2.63;;;;;;;;;;6269080;22;20070;-82
2022/01/21 10:45:54;;;;;;;12.32;2.17;;;;;;;;;;6270050;22;20532;-83
2022/01/21 10:48:20;;;;;;;6.63;1.40;;;;;;;;;;6219501;22;20093;-83
2022/01/21 10:50:46;;;;;;;9.35;2.00;;;;;;;;;;6245526;22;20023;-83
2022/01/21 10:53:32;;;;;;;6.40;1.55;;;;;;;;;;6244797;22;20022;-82
2022/01/21 10:56:12;;;;;;;12.35;1.85;;;;;;;;;;6246205;22;20107;-83
2022/01/21 10:58:42;;;;;;;7.35;2.03;;;;;;;;;;6243812;22;20026;-83
2022/01/21 11:01:17;;;;;;;10.88;2.00;;;;;;;;;;6221225;22;20050;-85
2022/01/21 11:04:13;;;;;;;8.32;3.05;;;;;;;;;;6231785;22;20015;-83
2022/01/21 11:06:52;;;;;;;7.63;2.10;;;;;;;;;;6218289;22;20015;-82
2022/01/21 11:09:26;;;;;;;4.80;1.67;;;;;;;;;;6228645;22;20067;-82
2022/01/21 11:12:12;;;;;;;8.75;2.13;;;;;;;;;;6218780;22;20086;-82
2022/01/21 11:14:57;;;;;;;5.07;1.60;;;;;;;;;;6245534;22;20023;-83
2022/01/21 11:17:23;;;;;;;6.15;1.88;;;;;;;;;;6236854;22;20038;-83
2022/01/21 11:20:13;;;;;;;16.75;5.45;;;;;;;;;;6269522;22;20019;-82
2022/01/21 11:22:55;;;;;;;10.85;2.83;;;;;;;;;;6246464;22;20011;-83
2022/01/21 11:25:41;;;;;;;13.20;4.00;;;;;;;;;;6233731;22;20043;-83
2022/01/21 11:28:20;;;;;;;34.35;16.02;;;;;;;;;;6253272;22;20019;-83
2022/01/21 11:30:46;;;;;;;36.25;17.23;;;;;;;;;;6206012;22;20067;-84
2022/01/21 11:33:22;;;;;;;30.60;12.93;;;;;;;;;;6214188;22;20019;-84
2022/01/21 11:35:48;;;;;;;42.42;19.85;;;;;;;;;;6243618;22;20016;-84
2022/01/21 11:38:16;;;;;;;22.88;10.77;;;;;;;;;;6188404;22;20023;-85
2022/01/21 11:40:42;;;;;;;28.30;13.55;;;;;;;;;;6221330;22;20016;-85
2022/01/21 11:43:13;;;;;;;15.57;7.32;;;;;;;;;;6237190;22;20441;-86
2022/01/21 11:51:32;;;;;;;7.07;3.38;;;;;;;;;;6238767;22;20026;-84
2022/01/21 11:54:01;;;;;;;5.93;1.80;;;;;;;;;;6221433;23;20430;-85
2022/01/21 11:56:47;;;;;;;7.68;2.45;;;;;;;;;;6158501;23;20334;-85
2022/01/21 11:59:31;;;;;;;8.30;2.67;;;;;;;;;;6200179;22;20476;-85
2022/01/21 12:01:57;;;;;;;4.88;1.73;;;;;;;;;;6247388;22;20348;-85
2022/01/21 12:04:31;;;;;;;7.15;2.13;;;;;;;;;;6244405;22;20027;-85
2022/01/21 12:06:58;;;;;;;5.60;2.30;;;;;;;;;;6271284;22;20024;-85
2022/01/21 12:10:03;;;;;;;9.40;2.70;;;;;;;;;;6244635;22;20086;-85
2022/01/21 12:12:59;;;;;;;8.45;2.53;;;;;;;;;;6244436;22;20195;-85
2022/01/21 12:15:36;;;;;;;;;;;;;;;;;;6273671;22;20020;-85
2022/01/21 12:20:59;;;;;;;4.15;1.83;;;;;;;;;;6248411;22;20033;-85
2022/01/21 12:23:28;;;;;;;3.33;1.20;;;;;;;;;;6221229;22;20384;-85
2022/01/21 12:26:09;;;;;;;5.10;1.73;;;;;;;;;;6227288;22;20022;-85
2022/01/21 12:28:39;;;;;;;4.93;1.73;;;;;;;;;;6270737;22;20034;-85
2022/01/21 12:31:05;;;;;;;5.68;1.63;;;;;;;;;;6244493;22;20452;-84
2022/01/21 12:34:11;;;;;;;4.00;1.20;;;;;;;;;;6220196;22;20106;-84
2022/01/21 12:36:41;;;;;;;5.75;2.42;;;;;;;;;;6148462;23;20359;-84
2022/01/21 12:39:47;;;;;;;3.78;2.13;;;;;;;;;;6216461;22;20012;-84
2022/01/21 12:42:27;;;;;;;8.80;2.42;;;;;;;;;;6212067;22;20509;-84
2022/01/21 12:45:16;;;;;;;5.28;2.17;;;;;;;;;;6246106;22;20099;-84
2022/01/21 12:47:48;;;;;;;4.18;2.10;;;;;;;;;;6236637;22;20023;-83
2022/01/21 12:50:48;;;;;;;4.07;1.80;;;;;;;;;;6218199;22;20022;-84
2022/01/21 14:16:47;;;;;;;4.03;1.00;;;;;;;;;;5848112;24;20231;-82
2022/01/21 15:30:22;;;;;;;;;;;;;;;;;;;;;
2022/01/21 15:37:09;;;;;;;;;;;;;;;;;;;;;
2022/01/21 15:40:33;;;;;;;3.65;0.82;;;;;;;;;;5794001;24;20102;-82
2022/01/21 15:47:30;;;;;;;3.20;0.90;;;;;;;;;;5982109;23;20038;-82
2022/01/21 15:50:05;;;;;;;1.60;0.82;;;;;;;;;;5927825;23;20129;-82
2022/01/21 15:55:27;;;;;;;2.53;0.90;;;;;;;;;;6108903;23;20097;-84
2022/01/21 15:57:59;;;;;;;4.82;0.70;;;;;;;;;;6046335;23;20029;-82
2022/01/21 16:00:28;;;;;;;3.97;0.80;;;;;;;;;;6158410;23;20024;-82
2022/01/21 16:35:17;;;;;;;;;;;;;;;;;;;;;
2022/01/21 17:49:24;;;;;;;6.78;3.20;;;;;;;;;;6184462;22;1326088;-84
2022/01/21 17:51:51;;;;;;;6.80;2.80;;;;;;;;;;6193103;23;20028;-84
2022/01/21 17:54:16;;;;;;;8.50;4.05;;;;;;;;;;6199501;23;20028;-83
2022/01/21 17:56:44;;;;;;;12.98;4.07;;;;;;;;;;6191708;22;20048;-83
2022/01/21 17:59:11;;;;;;;13.52;4.13;;;;;;;;;;6190321;22;20016;-84
2022/01/21 18:01:39;;;;;;;12.02;4.88;;;;;;;;;;6182333;22;20013;-84
2022/01/21 18:04:04;;;;;;;9.82;4.88;;;;;;;;;;6183163;22;20020;-82
2022/01/21 18:06:30;;;;;;;9.15;4.05;;;;;;;;;;6203340;22;20029;-82
2022/01/21 18:09:06;;;;;;;8.45;3.78;;;;;;;;;;6187020;22;20039;-82
2022/01/21 18:11:37;;;;;;;4.22;2.13;;;;;;;;;;6189678;22;20028;-82
2022/01/21 18:14:03;;;;;;;9.57;2.60;;;;;;;;;;6196250;22;20096;-83
2022/01/21 18:16:29;;;;;;;7.47;1.90;;;;;;;;;;6209118;23;20047;-83
2022/01/21 18:18:58;;;;;;;10.80;2.53;;;;;;;;;;6191393;22;20083;-83
2022/01/21 18:21:27;;;;;;;6.97;1.63;;;;;;;;;;6187981;22;20021;-83
2022/01/21 18:23:53;;;;;;;4.25;1.83;;;;;;;;;;6188112;22;20040;-84
2022/01/21 18:26:19;;;;;;;6.47;2.05;;;;;;;;;;6213868;23;20519;-83
2022/01/21 18:28:45;;;;;;;3.55;2.00;;;;;;;;;;6186835;23;20102;-83
2022/01/21 18:31:11;;;;;;;10.52;2.20;;;;;;;;;;6187653;22;20047;-83
2022/01/21 18:33:37;;;;;;;5.47;2.88;;;;;;;;;;6212519;22;20027;-83
2022/01/21 18:36:05;;;;;;;4.75;1.70;;;;;;;;;;6186156;22;20020;-83
2022/01/21 18:38:33;;;;;;;12.65;3.17;;;;;;;;;;6186651;22;20028;-83
2022/01/21 18:40:59;;;;;;;6.50;1.88;;;;;;;;;;6186539;22;20067;-85
2022/01/21 18:43:27;;;;;;;5.53;1.98;;;;;;;;;;6212531;22;20020;-84
2022/01/21 18:45:57;;;;;;;7.10;2.30;;;;;;;;;;6188376;22;20036;-83
2022/01/21 18:48:27;;;;;;;9.57;2.78;;;;;;;;;;6210731;22;20405;-83
2022/01/21 18:51:00;;;;;;;7.22;2.30;;;;;;;;;;6190143;22;20067;-84
2022/01/21 18:53:28;;;;;;;6.70;2.70;;;;;;;;;;6188249;22;20017;-84
2022/01/21 18:55:53;;;;;;;6.88;2.40;;;;;;;;;;6189894;22;20035;-83
2022/01/21 18:58:19;;;;;;;9.40;3.20;;;;;;;;;;6188224;23;20494;-84
2022/01/21 19:00:46;;;;;;;5.25;2.60;;;;;;;;;;6187939;23;20033;-84
2022/01/21 19:03:13;;;;;;;6.50;2.53;;;;;;;;;;6188360;22;20036;-84
2022/01/21 19:05:39;;;;;;;9.18;2.42;;;;;;;;;;6197433;22;20023;-84
2022/01/21 19:08:05;;;;;;;8.75;2.53;;;;;;;;;;6189976;22;20044;-83
2022/01/21 19:10:31;;;;;;;10.43;2.28;;;;;;;;;;6185401;22;20025;-84
2022/01/21 19:12:58;;;;;;;11.32;2.08;;;;;;;;;;6186454;22;20513;-84
2022/01/21 19:15:24;;;;;;;7.68;2.05;;;;;;;;;;6186493;22;20051;-83
2022/01/21 19:17:51;;;;;;;15.13;4.13;;;;;;;;;;6182559;23;20012;-84
2022/01/21 19:20:20;;;;;;;10.70;3.30;;;;;;;;;;6170827;23;20028;-83
2022/01/21 19:22:50;;;;;;;6.97;1.83;;;;;;;;;;6224363;23;20096;-83
2022/01/21 19:25:21;;;;;;;9.85;2.10;;;;;;;;;;6195614;23;20029;-84
2022/01/21 19:27:47;;;;;;;5.88;2.20;;;;;;;;;;6187845;23;20008;-83
2022/01/21 19:30:21;;;;;;;8.00;1.73;;;;;;;;;;6186633;22;20102;-83
2022/01/21 19:32:49;;;;;;;9.27;2.60;;;;;;;;;;6214524;23;20013;-84
2022/01/21 19:35:19;;;;;;;8.57;2.08;;;;;;;;;;6201196;23;20013;-85
2022/01/21 19:37:45;;;;;;;5.53;2.05;;;;;;;;;;6215028;23;20031;-85
2022/01/21 19:40:11;;;;;;;8.85;2.38;;;;;;;;;;6210178;22;20079;-84
2022/01/21 19:42:38;;;;;;;9.52;2.60;;;;;;;;;;6209686;22;20020;-84
2022/01/21 19:45:08;;;;;;;12.32;2.58;;;;;;;;;;6209630;22;20078;-84
2022/01/21 19:47:45;;;;;;;5.28;2.13;;;;;;;;;;6199958;22;20368;-84
2022/01/21 19:50:13;;;;;;;12.05;2.75;;;;;;;;;;6204767;22;20051;-84
2022/01/21 19:52:39;;;;;;;10.85;2.38;;;;;;;;;;6213787;22;20084;-84
2022/01/21 19:55:06;;;;;;;9.35;2.30;;;;;;;;;;6217024;22;20035;-84
2022/01/21 19:57:36;;;;;;;9.20;2.42;;;;;;;;;;6213938;22;20520;-84
2022/01/21 20:05:55;;;;;;;13.43;3.38;;;;;;;;;;6236640;22;20056;-85
2022/01/21 20:08:36;;;;;;;15.57;3.20;;;;;;;;;;6216617;22;20035;-84
2022/01/21 20:14:10;;;;;;;10.07;3.05;;;;;;;;;;6237620;22;20031;-84
2022/01/21 20:16:35;;;;;;;5.78;2.63;;;;;;;;;;6219218;22;20020;-84
2022/01/21 20:19:04;;;;;;;17.52;3.80;;;;;;;;;;6241492;22;20432;-85
2022/01/21 20:21:38;;;;;;;13.05;3.05;;;;;;;;;;6216746;22;20050;-84
2022/01/21 20:24:08;;;;;;;15.27;3.88;;;;;;;;;;6216346;22;20022;-84
2022/01/21 20:26:34;;;;;;;12.30;3.22;;;;;;;;;;6216633;22;20036;-84
2022/01/21 20:29:00;;;;;;;14.50;4.20;;;;;;;;;;6214693;22;20020;-84